Terminal Aerodrome Forecast
Issued by NWS

Home | Current Version | Previous Version | Text Only | Print | Product List | Glossary On
Versions: 1 2 3 4 5 6 7 8 9 10 11 12 13 14 15 16 17 18 19 20
063
FTUS43 KDVN 170927 AAB
TAFBRL
TAF AMD
KBRL 170927Z 1709/1806 26008KT 2SM BR OVC002
     FM171400 28009KT 5SM BR OVC009
     FM180100 29007KT 5SM BR BKN020=

USA.gov is the U.S. government's official web portal to all federal, state and local government web resources and services.